Time;durP1;ratioP1;P1;durP2;ratioP2;P2;SDS_P1;SDS_P2;PMS_P1;PMS_P2;Temp;Humidity;BMP_temperature;BMP_pressure;BME280_temperature;BME280_humidity;BME280_pressure;Samples;Min_cycle;Max_cycle;Signal;HPM_P1;HPM_P2
2021/07/03 00:02:27;;;;;;;5.71;5.11;;;;;;;14.04;86.58;99383.94;1995371;78;20731;-77
2021/07/03 00:05:30;;;;;;;6.53;5.79;;;;;;;13.98;86.76;99378.81;1996275;81;20207;-77
2021/07/03 00:08:33;;;;;;;6.61;5.35;;;;;;;13.96;86.81;99385.81;1996576;81;20224;-77
2021/07/03 00:11:36;;;;;;;5.40;4.90;;;;;;;13.93;86.86;99378.03;1991935;81;20186;-77
2021/07/03 00:14:38;;;;;;;5.89;5.32;;;;;;;13.90;86.78;99369.38;1997147;81;20775;-78
2021/07/03 00:17:41;;;;;;;5.89;5.30;;;;;;;13.85;86.97;99368.63;1994525;78;26444;-78
2021/07/03 00:20:44;;;;;;;6.88;5.75;;;;;;;13.83;87.18;99364.31;1996698;81;20178;-77
2021/07/03 00:23:47;;;;;;;10.71;5.68;;;;;;;13.79;87.09;99373.91;1995989;81;20276;-78
2021/07/03 00:26:50;;;;;;;5.94;5.40;;;;;;;13.71;87.07;99380.19;1996002;81;20221;-79
2021/07/03 00:29:52;;;;;;;7.64;5.24;;;;;;;13.66;87.29;99395.06;1996174;81;20610;-77
2021/07/03 00:32:55;;;;;;;5.93;5.40;;;;;;;13.64;87.40;99392.44;1995169;79;26391;-77
2021/07/03 00:35:58;;;;;;;6.35;5.36;;;;;;;13.64;87.45;99402.03;1996262;81;20202;-78
2021/07/03 00:39:00;;;;;;;6.22;5.72;;;;;;;13.62;87.39;99402.06;1994393;81;20195;-77
2021/07/03 00:42:03;;;;;;;6.19;5.21;;;;;;;13.61;87.23;99405.53;1996263;81;20285;-78
2021/07/03 00:45:07;;;;;;;7.20;5.71;;;;;;;13.56;87.09;99397.81;1996374;81;20248;-77
2021/07/03 00:48:09;;;;;;;5.41;4.95;;;;;;;13.52;86.96;99398.75;1996103;78;20546;-78
2021/07/03 00:51:12;;;;;;;6.43;5.26;;;;;;;13.48;87.19;99401.44;1996168;81;20745;-77
2021/07/03 00:54:15;;;;;;;5.40;4.95;;;;;;;13.44;87.42;99410.16;1995678;81;20178;-77
2021/07/03 00:57:18;;;;;;;5.76;5.15;;;;;;;13.41;87.36;99399.78;1995900;81;20203;-77
2021/07/03 01:00:22;;;;;;;9.49;6.06;;;;;;;13.37;87.36;99398.13;1995210;78;20247;-77
2021/07/03 01:03:24;;;;;;;6.99;5.41;;;;;;;13.35;87.38;99402.50;1999686;81;20210;-78
2021/07/03 01:06:28;;;;;;;7.22;5.56;;;;;;;13.31;87.63;99404.31;1996486;81;20219;-77
2021/07/03 01:09:31;;;;;;;5.19;4.79;;;;;;;13.29;87.78;99409.56;1995972;81;20219;-78
2021/07/03 01:12:34;;;;;;;6.38;5.72;;;;;;;13.25;87.67;99404.38;1996148;81;20744;-77
2021/07/03 01:15:37;;;;;;;5.60;5.09;;;;;;;13.23;87.57;99409.63;1994680;81;20276;-78
2021/07/03 01:18:40;;;;;;;5.99;4.91;;;;;;;13.19;87.47;99415.78;1995178;78;20206;-78
2021/07/03 01:21:47;;;;;;;5.29;4.79;;;;;;;13.18;87.64;99414.03;1996139;81;20767;-79
2021/07/03 01:24:50;;;;;;;6.86;4.63;;;;;;;13.17;87.72;99409.69;1996144;81;20712;-78
2021/07/03 01:27:59;;;;;;;5.69;4.75;;;;;;;13.13;87.67;99408.00;1996481;81;20736;-78
2021/07/03 01:31:02;;;;;;;5.72;5.22;;;;;;;13.10;87.82;99404.56;1996882;81;20282;-78
2021/07/03 01:34:05;;;;;;;6.71;5.09;;;;;;;13.09;87.59;99410.66;1996159;81;21887;-77
2021/07/03 01:37:08;;;;;;;7.19;5.40;;;;;;;13.06;87.24;99406.34;1997250;81;20204;-78
2021/07/03 01:40:11;;;;;;;7.09;4.78;;;;;;;13.03;87.14;99395.97;1997151;81;20196;-78
2021/07/03 01:43:22;;;;;;;6.14;5.36;;;;;;;13.00;87.12;99406.47;1997473;81;21029;-78
2021/07/03 01:46:24;;;;;;;5.90;5.26;;;;;;;12.95;87.38;99397.84;1995780;79;21520;-79
2021/07/03 01:49:29;;;;;;;8.80;5.63;;;;;;;12.93;87.55;99397.00;1997570;81;20198;-77
2021/07/03 01:52:34;;;;;;;6.26;4.93;;;;;;;12.93;87.63;99395.28;1996133;81;20171;-78
2021/07/03 01:55:39;;;;;;;7.03;5.26;;;;;;;12.89;87.57;99385.75;1996963;81;20595;-79
2021/07/03 01:58:41;;;;;;;5.86;4.60;;;;;;;12.84;87.61;99386.69;1997698;81;20162;-77
2021/07/03 02:01:44;;;;;;;8.16;4.74;;;;;;;12.81;87.43;99376.31;1997825;78;47821;-78
2021/07/03 02:04:47;;;;;;;9.69;5.39;;;;;;;12.78;87.21;99373.75;1998893;81;20562;-79
2021/07/03 02:07:49;;;;;;;7.07;4.90;;;;;;;12.75;87.17;99372.06;1998108;81;20212;-78
2021/07/03 02:10:52;;;;;;;5.63;4.49;;;;;;;12.71;87.26;99367.75;1999016;81;20260;-78
2021/07/03 02:13:55;;;;;;;5.55;5.07;;;;;;;12.69;87.56;99365.16;1998392;81;20215;-78
2021/07/03 02:16:57;;;;;;;6.29;5.07;;;;;;;12.67;87.71;99364.34;1998162;78;26370;-78
2021/07/03 02:20:00;;;;;;;7.81;5.10;;;;;;;12.65;87.78;99368.72;1998869;81;20373;-78
2021/07/03 02:23:04;;;;;;;7.79;4.86;;;;;;;12.62;87.84;99367.91;1997879;81;20183;-79
2021/07/03 02:26:07;;;;;;;4.89;4.47;;;;;;;12.60;87.70;99367.91;1998642;81;20718;-77
2021/07/03 02:29:09;;;;;;;5.25;4.36;;;;;;;12.59;87.70;99366.19;1998629;81;20314;-78
2021/07/03 02:32:12;;;;;;;4.76;4.15;;;;;;;12.55;87.87;99363.63;1997346;79;22025;-79
2021/07/03 02:35:17;;;;;;;4.82;4.36;;;;;;;12.53;87.80;99362.78;1998819;81;20611;-78
2021/07/03 02:38:19;;;;;;;6.09;4.30;;;;;;;12.51;87.98;99368.03;1998282;81;20167;-78
2021/07/03 02:41:22;;;;;;;5.29;4.07;;;;;;;12.50;87.93;99370.66;1998524;81;20167;-77
2021/07/03 02:44:25;;;;;;;7.25;4.46;;;;;;;12.44;87.81;99366.38;1998381;81;20245;-78
2021/07/03 02:47:28;;;;;;;7.64;4.60;;;;;;;12.43;87.83;99371.63;1996405;78;20206;-78
2021/07/03 02:50:31;;;;;;;4.68;4.18;;;;;;;12.39;87.75;99384.69;1998182;81;20184;-78
2021/07/03 02:53:33;;;;;;;5.91;4.71;;;;;;;12.34;87.61;99378.63;1997927;81;20210;-77
2021/07/03 02:56:36;;;;;;;9.63;4.69;;;;;;;12.31;87.72;99375.22;1998394;81;20194;-79
2021/07/03 02:59:39;;;;;;;5.30;4.90;;;;;;;12.26;87.59;99379.63;1998314;81;20232;-77
2021/07/03 03:02:41;;;;;;;4.94;4.38;;;;;;;12.22;87.55;99376.19;1996855;78;24982;-78
2021/07/03 03:05:44;;;;;;;4.50;4.16;;;;;;;12.20;87.56;99382.28;1997589;81;21249;-78
2021/07/03 03:08:47;;;;;;;6.95;4.69;;;;;;;12.19;87.63;99390.97;1997643;81;20194;-78
2021/07/03 03:11:49;;;;;;;5.43;4.39;;;;;;;12.17;87.71;99384.91;1997017;81;20236;-77
2021/07/03 03:14:52;;;;;;;7.53;4.20;;;;;;;12.15;87.73;99382.34;1997017;81;20263;-77
2021/07/03 03:17:54;;;;;;;6.00;4.40;;;;;;;12.10;87.50;99377.19;1996946;78;20781;-77
2021/07/03 03:20:57;;;;;;;4.66;4.26;;;;;;;12.02;87.50;99380.72;1997262;81;20167;-77
2021/07/03 03:24:00;;;;;;;6.57;4.38;;;;;;;12.01;87.75;99381.59;1996883;81;20183;-78
2021/07/03 03:27:03;;;;;;;4.38;4.04;;;;;;;12.01;88.01;99372.06;1996853;81;20632;-79
2021/07/03 03:30:07;;;;;;;7.01;4.45;;;;;;;12.00;88.07;99359.06;1996126;81;20187;-77
2021/07/03 03:33:09;;;;;;;4.66;4.29;;;;;;;11.98;87.95;99360.81;1996413;81;20966;-77
2021/07/03 03:36:13;;;;;;;4.70;3.66;;;;;;;11.96;87.88;99358.25;1997066;81;20776;-77
2021/07/03 03:39:16;;;;;;;4.54;4.13;;;;;;;11.95;87.80;99351.31;1996781;81;20174;-77
2021/07/03 03:42:18;;;;;;;4.65;3.90;;;;;;;11.95;87.85;99351.31;1998251;81;20187;-78
2021/07/03 03:45:22;;;;;;;4.72;4.30;;;;;;;11.94;87.67;99336.59;1996454;78;27054;-78
2021/07/03 03:48:25;;;;;;;4.93;4.29;;;;;;;11.90;87.68;99336.66;1997327;81;20284;-78
2021/07/03 03:51:28;;;;;;;7.10;4.89;;;;;;;11.93;87.84;99339.22;1997191;81;20926;-78
2021/07/03 03:54:30;;;;;;;5.69;4.50;;;;;;;11.93;88.09;99342.66;1996753;81;20268;-79
2021/07/03 03:57:33;;;;;;;9.49;4.61;;;;;;;11.96;88.21;99346.97;1997395;81;20245;-78
2021/07/03 04:00:36;;;;;;;7.44;4.79;;;;;;;11.95;88.14;99342.66;1995772;78;29720;-79
2021/07/03 04:03:38;;;;;;;5.28;4.39;;;;;;;11.95;88.18;99359.13;1996846;81;20711;-78
2021/07/03 04:06:41;;;;;;;5.00;4.03;;;;;;;11.99;88.42;99352.13;1997031;81;20179;-77
2021/07/03 04:09:44;;;;;;;5.61;4.04;;;;;;;12.05;88.59;99347.75;1996634;81;20264;-77
2021/07/03 04:12:47;;;;;;;8.96;4.28;;;;;;;12.17;88.88;99348.47;1996978;81;20190;-78
2021/07/03 04:15:50;;;;;;;4.20;3.65;;;;;;;12.26;89.14;99350.97;1995451;78;21696;-78
2021/07/03 04:18:53;;;;;;;8.60;4.53;;;;;;;12.39;89.12;99349.97;1996736;81;20171;-77
2021/07/03 04:21:56;;;;;;;6.39;4.04;;;;;;;12.52;89.01;99353.25;1996513;81;20276;-78
2021/07/03 04:24:59;;;;;;;5.96;4.38;;;;;;;12.63;88.71;99349.63;1996787;81;20878;-78
2021/07/03 04:28:02;;;;;;;4.96;4.19;;;;;;;12.76;88.36;99352.09;1996546;81;20377;-78
2021/07/03 04:31:05;;;;;;;4.71;4.20;;;;;;;12.81;88.12;99343.31;1994892;78;23164;-77
2021/07/03 04:34:07;;;;;;;5.93;4.39;;;;;;;12.87;87.66;99342.34;1994542;80;20860;-77
2021/07/03 04:37:10;;;;;;;5.38;4.31;;;;;;;12.82;87.29;99342.44;1995799;81;20178;-78
2021/07/03 04:40:13;;;;;;;4.99;3.89;;;;;;;12.77;87.28;99333.81;1996714;81;20182;-77
2021/07/03 04:43:19;;;;;;;5.14;3.99;;;;;;;12.79;87.43;99334.66;1996670;81;20977;-77
2021/07/03 04:46:21;;;;;;;4.19;3.89;;;;;;;12.80;87.55;99325.09;1995486;78;20570;-77
2021/07/03 04:49:24;;;;;;;4.57;4.18;;;;;;;12.80;87.60;99335.53;1996677;81;20178;-78
2021/07/03 04:52:28;;;;;;;5.29;4.26;;;;;;;12.74;87.55;99339.06;1996361;81;20323;-78
2021/07/03 04:55:31;;;;;;;4.07;3.71;;;;;;;12.70;87.66;99346.06;1996508;81;20196;-77
2021/07/03 04:58:34;;;;;;;4.68;4.06;;;;;;;12.67;87.79;99345.25;1996473;81;20594;-77
2021/07/03 05:01:37;;;;;;;4.63;4.25;;;;;;;12.65;88.23;99342.66;1995261;78;22967;-78
2021/07/03 05:04:44;;;;;;;7.66;4.29;;;;;;;12.70;88.35;99350.41;1995978;81;20204;-78
2021/07/03 05:07:51;;;;;;;5.47;3.64;;;;;;;12.79;88.54;99357.25;1996323;81;20190;-78
2021/07/03 05:10:54;;;;;;;6.10;3.95;;;;;;;12.88;88.67;99357.97;1996053;81;20274;-77
2021/07/03 05:13:56;;;;;;;3.89;3.69;;;;;;;13.00;88.64;99363.00;1996527;81;20257;-78
2021/07/03 05:16:59;;;;;;;7.79;4.22;;;;;;;13.19;88.51;99354.94;1996058;78;25538;-77
2021/07/03 05:20:04;;;;;;;6.20;4.50;;;;;;;13.39;88.06;99352.88;1996306;81;20174;-77
2021/07/03 05:23:07;;;;;;;5.10;4.15;;;;;;;13.60;87.50;99349.91;1996969;81;20226;-77
2021/07/03 05:26:09;;;;;;;4.31;3.96;;;;;;;13.85;86.55;99344.25;1996405;81;20220;-78
2021/07/03 05:29:12;;;;;;;6.45;4.49;;;;;;;14.10;85.73;99348.13;1997022;81;20193;-77
2021/07/03 05:32:15;;;;;;;5.57;4.43;;;;;;;14.48;84.45;99341.28;1995808;78;24282;-77
2021/07/03 05:35:17;;;;;;;4.79;4.43;;;;;;;14.70;83.52;99341.69;1996286;81;20194;-77
2021/07/03 05:38:21;;;;;;;4.96;4.46;;;;;;;15.00;82.64;99341.00;1996106;81;20216;-77
2021/07/03 05:41:24;;;;;;;4.36;3.96;;;;;;;15.56;81.22;99344.00;1999277;81;20204;-77
2021/07/03 05:44:27;;;;;;;5.10;4.60;;;;;;;15.90;79.56;99346.63;1996735;81;20174;-77
2021/07/03 05:47:31;;;;;;;5.84;4.76;;;;;;;16.07;79.08;99343.56;1995753;80;24599;-77
2021/07/03 05:50:33;;;;;;;7.18;5.76;;;;;;;16.14;79.07;99342.47;1996398;81;20264;-77
2021/07/03 05:53:36;;;;;;;9.91;5.96;;;;;;;16.20;79.15;99339.72;1997010;81;20228;-78
2021/07/03 05:56:39;;;;;;;8.20;5.90;;;;;;;16.23;79.00;99338.75;1996909;81;20183;-78
2021/07/03 05:59:41;;;;;;;8.56;6.06;;;;;;;16.27;78.44;99333.38;1996698;81;20207;-78
2021/07/03 06:02:45;;;;;;;6.19;5.60;;;;;;;16.42;78.37;99336.47;1995858;79;20689;-78
2021/07/03 06:05:48;;;;;;;6.72;5.49;;;;;;;16.61;78.24;99327.16;2014285;81;20200;-84
2021/07/03 06:08:50;;;;;;;7.96;6.21;;;;;;;16.63;78.49;99325.34;2011946;81;20233;-84
2021/07/03 06:11:53;;;;;;;6.43;5.81;;;;;;;16.73;78.68;99326.84;2010614;81;20164;-85
2021/07/03 06:14:56;;;;;;;7.22;5.51;;;;;;;17.25;77.25;99327.81;2014156;81;20153;-86
2021/07/03 06:17:59;;;;;;;11.48;6.24;;;;;;;17.37;76.97;99318.66;2017783;78;21137;-88
2021/07/03 07:14:14;;;;;;;9.18;5.44;;;;;;;22.94;59.31;99320.31;2201945;70;20296;-83
2021/07/03 07:17:25;;;;;;;6.41;5.11;;;;;;;22.94;59.55;99313.22;2083602;70;20186;-81
2021/07/03 07:20:28;;;;;;;7.60;5.07;;;;;;;23.15;58.67;99319.97;2015668;81;20170;-79
2021/07/03 07:23:31;;;;;;;7.95;5.53;;;;;;;23.47;57.92;99318.09;2011483;81;20174;-81
2021/07/03 07:26:34;;;;;;;14.66;5.54;;;;;;;23.76;56.07;99318.22;2012298;81;20191;-84
2021/07/03 07:29:37;;;;;;;10.76;4.94;;;;;;;23.70;55.60;99311.50;2020930;81;20162;-85
2021/07/03 07:32:53;;;;;;;12.50;4.96;;;;;;;23.81;56.65;99317.00;2173973;70;20227;-81
2021/07/03 07:35:59;;;;;;;9.50;5.74;;;;;;;23.96;56.37;99311.72;2011387;80;20177;-79
2021/07/03 07:39:01;;;;;;;10.25;5.54;;;;;;;24.01;54.55;99307.84;2006563;81;20290;-79
2021/07/03 07:42:12;;;;;;;5.88;5.24;;;;;;;24.16;54.71;99306.06;2017930;70;20255;-81
2021/07/03 07:45:15;;;;;;;19.59;8.60;;;;;;;24.25;53.29;99307.31;2013422;80;20206;-83
2021/07/03 07:48:20;;;;;;;11.23;5.47;;;;;;;24.49;53.35;99296.97;2019460;81;20229;-82
2021/07/03 07:51:23;;;;;;;16.35;7.24;;;;;;;24.55;51.87;99297.44;2010217;81;20174;-80
2021/07/03 07:54:26;;;;;;;9.51;5.85;;;;;;;24.56;51.85;99299.16;2011776;81;20327;-74
2021/07/03 07:57:29;;;;;;;8.04;5.04;;;;;;;24.61;51.37;99294.41;2005501;81;20246;-76
2021/07/03 08:00:31;;;;;;;8.29;4.90;;;;;;;24.77;51.32;99288.94;2004268;78;55173;-75
2021/07/03 08:03:34;;;;;;;10.15;5.38;;;;;;;25.10;52.08;99290.41;2011553;81;20268;-81
2021/07/03 08:06:37;;;;;;;10.41;5.04;;;;;;;25.37;51.91;99279.78;2011606;81;20195;-79
2021/07/03 08:09:43;;;;;;;7.45;4.97;;;;;;;25.63;51.60;99283.31;2007637;80;20166;-79
2021/07/03 08:12:47;;;;;;;7.18;4.53;;;;;;;25.72;50.23;99274.75;2012106;81;20205;-79
2021/07/03 08:15:50;;;;;;;6.39;4.95;;;;;;;25.94;50.49;99272.31;2007892;79;21708;-79
2021/07/03 08:18:53;;;;;;;7.44;4.49;;;;;;;26.14;50.33;99268.25;2010379;81;20306;-75
2021/07/03 08:21:58;;;;;;;9.81;4.36;;;;;;;26.37;49.65;99275.50;2010901;81;20191;-76
2021/07/03 08:25:00;;;;;;;4.99;3.45;;;;;;;26.56;48.73;99263.50;2004089;81;20219;-79
2021/07/03 08:28:03;;;;;;;5.28;3.51;;;;;;;26.73;48.79;99261.34;2003291;81;20572;-78
2021/07/03 08:31:06;;;;;;;4.00;3.06;;;;;;;26.69;47.59;99256.34;2001734;78;20595;-77
2021/07/03 08:34:09;;;;;;;4.39;3.30;;;;;;;26.85;47.52;99250.75;2002284;81;20641;-78
2021/07/03 08:37:12;;;;;;;7.24;3.34;;;;;;;27.08;47.47;99249.91;2001177;81;20205;-77
2021/07/03 08:40:15;;;;;;;3.34;2.97;;;;;;;27.12;46.62;99254.09;2002119;81;20177;-80
2021/07/03 08:47:07;;;;;;;2.56;2.39;;;;;;;27.39;44.34;99249.31;2230919;70;20297;-84
2021/07/03 08:53:26;;;;;;;2.29;2.09;;;;;;;27.64;42.12;99248.31;1991775;81;20199;-82
2021/07/03 08:56:29;;;;;;;4.30;2.44;;;;;;;27.61;41.84;99251.19;1991386;81;20281;-82
2021/07/03 08:59:31;;;;;;;2.94;2.31;;;;;;;27.67;43.46;99245.44;1991511;81;20163;-83
2021/07/03 09:02:36;;;;;;;2.78;2.16;;;;;;;27.82;42.78;99247.88;1990464;78;20226;-82
2021/07/03 09:05:42;;;;;;;3.84;2.20;;;;;;;27.97;42.92;99249.34;1991196;81;20658;-86
2021/07/03 09:08:52;;;;;;;2.74;2.38;;;;;;;28.11;43.00;99253.59;1987964;81;20574;-81
2021/07/03 09:11:55;;;;;;;2.51;1.92;;;;;;;28.08;42.17;99251.19;1991727;81;20171;-81
2021/07/03 09:15:20;;;;;;;4.50;1.99;;;;;;;28.12;41.50;99248.13;1990645;81;20669;-77
2021/07/03 09:18:27;;;;;;;2.05;1.94;;;;;;;28.24;41.79;99243.66;1985650;78;23147;-83
2021/07/03 09:21:30;;;;;;;3.11;2.13;;;;;;;28.49;41.97;99251.41;1985614;81;20225;-78
2021/07/03 09:24:33;;;;;;;1.88;1.75;;;;;;;28.63;40.70;99244.13;1985954;81;20196;-79
2021/07/03 09:27:39;;;;;;;1.74;1.65;;;;;;;28.59;38.84;99247.03;1986052;81;21123;-79
2021/07/03 09:30:44;;;;;;;1.80;1.70;;;;;;;28.59;39.16;99239.03;1985987;79;20343;-79
2021/07/03 09:33:50;;;;;;;2.00;1.85;;;;;;;28.48;38.15;99238.19;1991769;81;20245;-79
2021/07/03 09:37:03;;;;;;;3.75;1.70;;;;;;;28.66;38.77;99235.84;1990310;81;20261;-80
2021/07/03 09:40:07;;;;;;;2.03;1.54;;;;;;;28.52;35.36;99236.97;1990927;81;20651;-79
2021/07/03 09:43:11;;;;;;;2.39;1.51;;;;;;;28.27;36.76;99233.59;1991511;81;20700;-79
2021/07/03 09:46:51;;;;;;;1.66;1.56;;;;;;;28.36;38.67;99236.50;1989705;81;33142;-77
2021/07/03 09:50:21;;;;;;;1.60;1.50;;;;;;;28.11;36.57;99240.25;1991024;81;20187;-78
2021/07/03 09:53:24;;;;;;;1.60;1.50;;;;;;;27.98;37.57;99238.53;1991382;81;20370;-78
2021/07/03 09:56:27;;;;;;;2.97;1.64;;;;;;;28.24;39.75;99235.66;1991405;81;20231;-80
2021/07/03 09:59:32;;;;;;;3.44;1.50;;;;;;;28.59;39.33;99235.50;1991334;81;20717;-78
2021/07/03 10:02:35;;;;;;;5.54;1.66;;;;;;;28.63;36.78;99231.59;1990237;79;20231;-80
2021/07/03 10:05:49;;;;;;;1.77;1.45;;;;;;;28.74;37.58;99233.41;1991425;81;20256;-80
2021/07/03 10:08:58;;;;;;;1.40;1.30;;;;;;;28.82;37.08;99230.94;1991522;81;20245;-79
2021/07/03 10:12:11;;;;;;;2.31;1.46;;;;;;;28.97;37.11;99228.88;1991773;81;20236;-80
2021/07/03 10:15:15;;;;;;;3.56;1.52;;;;;;;28.82;34.54;99213.09;1990565;81;20220;-79
2021/07/03 10:18:22;;;;;;;3.17;1.49;;;;;;;29.00;35.90;99234.81;1991685;79;21199;-78
2021/07/03 10:21:25;;;;;;;1.72;1.50;;;;;;;28.99;33.69;99224.25;1991829;81;20250;-78
2021/07/03 10:24:40;;;;;;;1.52;1.30;;;;;;;28.66;34.01;99233.19;1991106;81;20743;-75
2021/07/03 10:27:58;;;;;;;1.45;1.23;;;;;;;28.74;35.54;99218.22;1992124;81;20167;-79
2021/07/03 10:31:31;;;;;;;1.66;1.20;;;;;;;28.80;33.04;99216.88;1988513;78;20187;-78
2021/07/03 10:34:35;;;;;;;3.26;1.30;;;;;;;28.85;33.48;99215.50;1989525;81;20272;-79
2021/07/03 10:37:44;;;;;;;1.45;1.26;;;;;;;29.07;34.78;99209.25;1990093;81;20195;-78
2021/07/03 10:40:49;;;;;;;2.04;1.31;;;;;;;29.44;35.77;99206.13;1989761;81;20297;-79
2021/07/03 10:43:54;;;;;;;1.20;1.10;;;;;;;29.78;34.69;99202.28;1989453;81;20199;-79
2021/07/03 10:47:09;;;;;;;2.45;1.19;;;;;;;29.60;32.81;99198.53;1989705;78;25120;-76
2021/07/03 10:50:28;;;;;;;1.39;1.29;;;;;;;29.08;33.31;99189.56;1991026;81;20288;-72
2021/07/03 10:53:31;;;;;;;2.03;1.17;;;;;;;29.03;34.26;99189.09;1991924;81;20850;-75
2021/07/03 10:56:50;;;;;;;1.45;1.34;;;;;;;29.23;35.13;99187.41;1991271;81;20289;-75
2021/07/03 11:00:01;;;;;;;2.11;1.26;;;;;;;29.39;35.31;99186.97;1991404;81;20764;-75
2021/07/03 11:03:25;;;;;;;2.19;1.52;;;;;;;29.66;34.35;99192.66;1986623;79;24331;-78
2021/07/03 11:06:28;;;;;;;3.33;1.61;;;;;;;29.94;34.36;99179.53;1986846;81;20760;-84
2021/07/03 11:09:31;;;;;;;1.73;1.24;;;;;;;29.73;31.45;99176.91;1987074;81;20180;-78
2021/07/03 11:12:52;;;;;;;2.05;1.27;;;;;;;29.77;32.41;99173.81;1986441;81;20295;-82
2021/07/03 11:15:55;;;;;;;2.58;1.24;;;;;;;29.89;33.80;99173.75;1986042;78;20320;-76
2021/07/03 11:18:58;;;;;;;3.86;1.95;;;;;;;29.90;32.34;99165.56;1991754;81;20186;-77
2021/07/03 11:22:08;;;;;;;1.46;1.36;;;;;;;30.05;33.97;99177.66;1990295;81;20908;-78
2021/07/03 11:25:11;;;;;;;1.31;1.09;;;;;;;29.92;32.95;99162.75;1993908;81;20211;-78
2021/07/03 11:28:27;;;;;;;1.35;1.25;;;;;;;30.05;33.89;99155.38;1991005;81;20663;-79
2021/07/03 11:31:30;;;;;;;;;;;;;;;30.19;34.04;99160.38;1990199;79;25555;-81
2021/07/03 11:34:36;;;;;;;3.66;1.50;;;;;;;30.23;33.44;99153.75;1991247;81;20159;-80
2021/07/03 11:37:38;;;;;;;2.05;1.29;;;;;;;30.38;33.74;99162.25;1990328;81;20179;-81
2021/07/03 11:40:41;;;;;;;2.13;1.20;;;;;;;30.53;33.46;99152.81;1990605;81;20382;-81
2021/07/03 11:43:44;;;;;;;1.27;1.20;;;;;;;30.58;32.41;99149.72;1990452;81;20183;-80
2021/07/03 11:46:50;;;;;;;1.41;1.31;;;;;;;30.14;30.09;99151.88;1989774;78;23088;-80
2021/07/03 11:49:52;;;;;;;1.83;1.10;;;;;;;30.03;30.94;99142.09;1991643;81;20822;-79
2021/07/03 11:52:57;;;;;;;2.49;1.20;;;;;;;30.02;31.11;99147.59;1991487;81;20788;-81
2021/07/03 11:56:02;;;;;;;1.36;1.01;;;;;;;30.02;32.97;99136.88;1991531;81;20623;-77
2021/07/03 11:59:05;;;;;;;2.59;1.10;;;;;;;29.87;32.44;99143.59;1991553;81;20207;-80
2021/07/03 12:02:08;;;;;;;1.58;1.13;;;;;;;29.44;32.06;99144.59;1990307;78;21245;-80
2021/07/03 12:05:12;;;;;;;1.17;1.08;;;;;;;29.12;32.76;99140.19;1990440;81;20195;-80
2021/07/03 12:08:15;;;;;;;0.98;0.98;;;;;;;28.95;31.90;99138.09;1990531;81;20694;-79
2021/07/03 12:11:23;;;;;;;2.11;0.90;;;;;;;28.66;31.65;99126.28;1990463;81;20241;-78
2021/07/03 12:14:27;;;;;;;1.29;1.10;;;;;;;28.43;33.80;99126.38;1991267;81;20629;-81
2021/07/03 12:17:30;;;;;;;1.70;1.44;;;;;;;28.16;34.86;99128.59;1990390;79;22184;-80
2021/07/03 12:20:32;;;;;;;3.65;1.05;;;;;;;27.96;35.34;99125.69;1992242;81;20179;-80
2021/07/03 12:23:37;;;;;;;1.05;1.02;;;;;;;27.72;37.15;99121.47;1991507;81;20179;-81
2021/07/03 12:26:46;;;;;;;1.39;1.29;;;;;;;27.46;38.86;99123.50;1991462;81;20240;-79
2021/07/03 12:29:48;;;;;;;2.49;1.20;;;;;;;27.20;40.07;99120.19;1992124;81;20191;-81
2021/07/03 12:36:27;;;;;;;1.29;1.19;;;;;;;26.58;44.02;99115.97;1989571;81;20191;-78
2021/07/03 12:39:30;;;;;;;2.25;1.34;;;;;;;26.11;44.59;99112.31;1988066;81;20215;-77
2021/07/03 12:42:33;;;;;;;1.46;1.36;;;;;;;25.92;44.12;99105.75;1987807;81;20179;-77
2021/07/03 12:45:35;;;;;;;1.11;1.11;;;;;;;25.66;47.08;99102.25;1982040;79;24722;-76
2021/07/03 12:48:40;;;;;;;1.95;1.10;;;;;;;25.45;45.77;99096.66;1982538;82;20197;-77
2021/07/03 12:51:46;;;;;;;1.30;1.10;;;;;;;25.39;45.86;99094.44;1982373;82;20165;-77
2021/07/03 12:54:56;;;;;;;1.58;1.26;;;;;;;25.41;45.84;99084.53;1978122;82;20169;-77
2021/07/03 12:57:58;;;;;;;1.73;1.11;;;;;;;25.47;45.74;99084.09;1982454;82;20197;-77
2021/07/03 13:01:03;;;;;;;2.34;1.41;;;;;;;25.56;45.55;99084.31;1981351;79;20382;-77
2021/07/03 13:04:07;;;;;;;1.29;1.19;;;;;;;25.75;46.03;99086.53;1981901;81;20239;-77
2021/07/03 13:07:20;;;;;;;1.30;1.20;;;;;;;25.90;45.13;99089.91;1982393;82;20200;-78
2021/07/03 13:10:22;;;;;;;2.69;1.23;;;;;;;26.12;44.83;99081.22;1982713;82;20176;-77
2021/07/03 13:13:26;;;;;;;1.94;1.48;;;;;;;26.31;44.05;99086.03;1982213;81;20176;-77
2021/07/03 13:16:28;;;;;;;1.21;1.10;;;;;;;26.40;44.04;99083.59;1981524;82;20165;-77
2021/07/03 13:19:31;;;;;;;1.35;1.19;;;;;;;26.40;43.73;99080.91;1982528;82;20176;-78
2021/07/03 13:22:34;;;;;;;1.61;1.30;;;;;;;26.38;44.27;99080.16;1983065;82;20306;-77
2021/07/03 13:25:37;;;;;;;3.00;1.41;;;;;;;26.37;44.75;99078.47;1981976;81;20196;-77
2021/07/03 13:28:41;;;;;;;1.36;1.26;;;;;;;26.28;45.43;99080.94;1982621;81;20202;-77
2021/07/03 13:31:44;;;;;;;3.10;1.27;;;;;;;26.11;46.62;99087.50;1979261;79;22367;-77
2021/07/03 13:34:46;;;;;;;1.50;1.40;;;;;;;25.92;46.91;99081.81;1977815;82;20180;-76
2021/07/03 13:37:49;;;;;;;4.21;1.34;;;;;;;25.80;48.18;99081.72;1978153;82;20226;-78
2021/07/03 13:40:52;;;;;;;2.31;1.42;;;;;;;25.48;49.93;99081.31;1978242;82;20205;-78
2021/07/03 13:43:56;;;;;;;2.41;1.50;;;;;;;25.30;49.79;99091.44;1979200;82;20224;-78
2021/07/03 13:46:59;;;;;;;1.39;1.29;;;;;;;25.14;50.29;99092.63;1980463;79;46711;-78
2021/07/03 13:50:03;;;;;;;1.36;1.26;;;;;;;24.99;52.08;99089.19;1985014;81;20172;-77
2021/07/03 13:53:06;;;;;;;1.60;1.50;;;;;;;24.82;52.94;99094.78;1985488;81;20224;-77
2021/07/03 13:56:09;;;;;;;3.38;1.60;;;;;;;24.65;52.75;99095.91;1984919;82;20556;-78
2021/07/03 13:59:12;;;;;;;1.31;1.30;;;;;;;24.50;55.46;99097.78;1985426;81;20384;-78
2021/07/03 14:02:15;;;;;;;1.79;1.67;;;;;;;24.39;54.55;99095.81;1978865;79;23798;-79
2021/07/03 14:05:18;;;;;;;6.16;1.86;;;;;;;24.38;53.93;99085.31;1978126;82;20223;-74
2021/07/03 14:08:20;;;;;;;3.95;1.40;;;;;;;24.42;54.07;99084.19;1977758;82;20185;-74
2021/07/03 14:11:23;;;;;;;2.33;1.66;;;;;;;24.47;55.86;99086.53;1977234;82;20213;-74
2021/07/03 14:14:25;;;;;;;1.63;1.55;;;;;;;24.51;55.45;99083.56;1976786;82;20209;-74
2021/07/03 14:17:30;;;;;;;1.71;1.61;;;;;;;24.61;53.82;99084.66;1976352;79;20238;-78
2021/07/03 14:20:33;;;;;;;1.60;1.50;;;;;;;24.67;52.85;99086.03;1980080;82;20319;-79
2021/07/03 14:23:35;;;;;;;2.03;1.80;;;;;;;24.73;52.64;99085.63;1980582;82;20266;-77
2021/07/03 14:26:38;;;;;;;1.56;1.46;;;;;;;24.73;53.61;99080.31;1979514;82;20230;-78
2021/07/03 14:29:41;;;;;;;2.24;1.60;;;;;;;24.73;53.12;99074.16;1979261;82;20203;-77
2021/07/03 14:32:44;;;;;;;1.84;1.52;;;;;;;24.75;53.35;99072.22;1983186;79;22828;-78
2021/07/03 14:35:46;;;;;;;3.03;1.58;;;;;;;24.77;53.78;99075.63;1984379;81;20748;-78
2021/07/03 14:38:50;;;;;;;2.81;1.74;;;;;;;24.81;54.69;99071.84;1983484;81;20184;-76
2021/07/03 14:41:55;;;;;;;3.71;1.96;;;;;;;24.83;53.61;99070.78;1982552;81;20250;-73
2021/07/03 14:44:58;;;;;;;35.54;3.08;;;;;;;24.93;54.01;99068.31;1984608;81;20177;-75
2021/07/03 14:48:01;;;;;;;11.69;2.53;;;;;;;25.06;53.88;99058.59;1980543;78;20953;-77
2021/07/03 14:51:04;;;;;;;6.43;2.10;;;;;;;25.19;53.31;99064.78;1980750;82;20241;-77
2021/07/03 14:54:07;;;;;;;11.18;7.24;;;;;;;25.26;53.13;99060.72;1978276;82;20180;-78
2021/07/03 14:57:10;;;;;;;12.07;5.57;;;;;;;25.37;53.59;99062.63;1978934;82;20317;-73
2021/07/03 15:00:13;;;;;;;12.02;10.04;;;;;;;25.64;51.59;99066.94;1978015;81;20185;-77
2021/07/03 15:03:15;;;;;;;156.63;142.49;;;;;;;25.89;51.50;99064.28;1989269;79;22423;-76
2021/07/03 15:06:18;;;;;;;59.65;55.21;;;;;;;26.09;51.36;99058.34;1994097;81;20168;-82
2021/07/03 15:09:21;;;;;;;4.46;4.07;;;;;;;26.25;50.11;99063.38;1992522;81;20236;-78
2021/07/03 15:12:31;;;;;;;2.96;2.76;;;;;;;26.38;49.67;99066.84;1988301;81;21142;-77
2021/07/03 15:15:36;;;;;;;13.65;12.65;;;;;;;26.60;46.96;99059.94;1992288;79;20831;-78
2021/07/03 15:18:40;;;;;;;49.31;45.09;;;;;;;26.77;46.87;99056.84;1982169;81;20715;-74
2021/07/03 15:21:42;;;;;;;60.31;54.49;;;;;;;26.90;45.53;99062.91;1982209;81;20228;-73
2021/07/03 15:24:45;;;;;;;7.16;6.36;;;;;;;27.03;44.91;99055.69;1982539;81;20757;-77
2021/07/03 15:27:48;;;;;;;27.58;25.02;;;;;;;27.08;44.42;99056.19;1982089;81;20619;-71
2021/07/03 15:30:51;;;;;;;144.21;130.15;;;;;;;27.11;45.68;99049.78;1981181;80;32177;-80